sensor_id;sensor_type;location;lat;lon;timestamp;temperature;humidity
51305;HTU21D;37392;50.964;6.952;2022-11-24T00:01:38;5.50;-0.23
51305;HTU21D;37392;50.964;6.952;2022-11-24T00:04:04;5.55;-0.17
51305;HTU21D;37392;50.964;6.952;2022-11-24T00:06:30;5.63;-0.10
51305;HTU21D;37392;50.964;6.952;2022-11-24T00:08:57;5.77;0.05
51305;HTU21D;37392;50.964;6.952;2022-11-24T00:11:23;5.91;-0.00
51305;HTU21D;37392;50.964;6.952;2022-11-24T00:13:50;6.11;-0.08
51305;HTU21D;37392;50.964;6.952;2022-11-24T00:16:17;6.20;-0.19
51305;HTU21D;37392;50.964;6.952;2022-11-24T00:18:44;6.25;-0.38
51305;HTU21D;37392;50.964;6.952;2022-11-24T00:21:12;6.22;-0.58
51305;HTU21D;37392;50.964;6.952;2022-11-24T00:23:38;6.20;-0.82
51305;HTU21D;37392;50.964;6.952;2022-11-24T00:26:05;6.20;-0.99
51305;HTU21D;37392;50.964;6.952;2022-11-24T00:28:38;6.14;-1.19
51305;HTU21D;37392;50.964;6.952;2022-11-24T00:31:04;6.05;-1.45
51305;HTU21D;37392;50.964;6.952;2022-11-24T00:33:38;5.98;-1.37
51305;HTU21D;37392;50.964;6.952;2022-11-24T00:36:03;5.87;-1.33
51305;HTU21D;37392;50.964;6.952;2022-11-24T00:38:29;5.80;-1.29
51305;HTU21D;37392;50.964;6.952;2022-11-24T00:40:54;5.77;-1.00
51305;HTU21D;37392;50.964;6.952;2022-11-24T00:43:20;5.72;-0.82
51305;HTU21D;37392;50.964;6.952;2022-11-24T00:45:45;5.78;-0.75
51305;HTU21D;37392;50.964;6.952;2022-11-24T00:48:11;5.77;-0.77
51305;HTU21D;37392;50.964;6.952;2022-11-24T00:50:36;5.68;-0.88
51305;HTU21D;37392;50.964;6.952;2022-11-24T00:53:02;5.65;-0.87
51305;HTU21D;37392;50.964;6.952;2022-11-24T00:55:27;5.59;-0.90
51305;HTU21D;37392;50.964;6.952;2022-11-24T00:57:53;5.55;-0.83
51305;HTU21D;37392;50.964;6.952;2022-11-24T01:00:18;5.53;-0.77
51305;HTU21D;37392;50.964;6.952;2022-11-24T01:02:44;5.53;-0.74
51305;HTU21D;37392;50.964;6.952;2022-11-24T01:05:10;5.60;-0.60
51305;HTU21D;37392;50.964;6.952;2022-11-24T01:07:35;5.60;-0.58
51305;HTU21D;37392;50.964;6.952;2022-11-24T01:10:01;5.56;-0.64
51305;HTU21D;37392;50.964;6.952;2022-11-24T01:12:26;5.61;-0.60
51305;HTU21D;37392;50.964;6.952;2022-11-24T01:14:52;5.60;-0.58
51305;HTU21D;37392;50.964;6.952;2022-11-24T01:17:18;5.63;-0.53
51305;HTU21D;37392;50.964;6.952;2022-11-24T01:19:43;5.64;-0.53
51305;HTU21D;37392;50.964;6.952;2022-11-24T01:22:11;5.71;-0.42
51305;HTU21D;37392;50.964;6.952;2022-11-24T01:24:37;5.77;-0.43
51305;HTU21D;37392;50.964;6.952;2022-11-24T01:27:03;5.94;-0.38
51305;HTU21D;37392;50.964;6.952;2022-11-24T01:29:28;6.15;-0.23
51305;HTU21D;37392;50.964;6.952;2022-11-24T01:31:54;6.29;-0.35
51305;HTU21D;37392;50.964;6.952;2022-11-24T01:34:19;6.42;-0.50
51305;HTU21D;37392;50.964;6.952;2022-11-24T01:36:45;6.56;-0.69
51305;HTU21D;37392;50.964;6.952;2022-11-24T01:39:11;6.73;-0.95
51305;HTU21D;37392;50.964;6.952;2022-11-24T01:41:37;6.79;-1.22
51305;HTU21D;37392;50.964;6.952;2022-11-24T01:44:22;6.84;-1.37
51305;HTU21D;37392;50.964;6.952;2022-11-24T01:46:53;6.78;-1.96
51305;HTU21D;37392;50.964;6.952;2022-11-24T01:49:40;6.72;-2.09
51305;HTU21D;37392;50.964;6.952;2022-11-24T01:52:11;6.64;-2.01
51305;HTU21D;37392;50.964;6.952;2022-11-24T01:54:42;6.59;-2.16
51305;HTU21D;37392;50.964;6.952;2022-11-24T01:57:17;6.64;-2.11
51305;HTU21D;37392;50.964;6.952;2022-11-24T01:59:48;6.65;-2.24
51305;HTU21D;37392;50.964;6.952;2022-11-24T02:02:16;6.71;-2.62
51305;HTU21D;37392;50.964;6.952;2022-11-24T02:04:41;6.80;-2.63
51305;HTU21D;37392;50.964;6.952;2022-11-24T02:07:08;6.82;-2.83
51305;HTU21D;37392;50.964;6.952;2022-11-24T02:09:44;6.90;-2.84
51305;HTU21D;37392;50.964;6.952;2022-11-24T02:12:12;7.01;-3.30
51305;HTU21D;37392;50.964;6.952;2022-11-24T02:14:38;7.10;-3.57
51305;HTU21D;37392;50.964;6.952;2022-11-24T02:17:05;7.16;-4.89
51305;HTU21D;37392;50.964;6.952;2022-11-24T02:21:56;7.30;-5.11
51305;HTU21D;37392;50.964;6.952;2022-11-24T02:24:28;7.35;-5.67
51305;HTU21D;37392;50.964;6.952;2022-11-24T02:26:59;7.39;-5.78
51305;HTU21D;37392;50.964;6.952;2022-11-24T02:29:24;7.38;-5.57
51305;HTU21D;37392;50.964;6.952;2022-11-24T02:31:51;7.46;-5.36
51305;HTU21D;37392;50.964;6.952;2022-11-24T02:34:20;7.49;-5.63
51305;HTU21D;37392;50.964;6.952;2022-11-24T02:36:46;7.50;118.98
51305;HTU21D;37392;50.964;6.952;2022-11-24T02:39:12;7.56;-5.74
51305;HTU21D;37392;50.964;6.952;2022-11-24T02:41:42;7.60;118.60
51305;HTU21D;37392;50.964;6.952;2022-11-24T02:44:10;7.58;118.58
51305;HTU21D;37392;50.964;6.952;2022-11-24T02:46:38;7.54;118.16
51305;HTU21D;37392;50.964;6.952;2022-11-24T02:49:04;7.42;118.18
51305;HTU21D;37392;50.964;6.952;2022-11-24T02:51:29;7.29;117.95
51305;HTU21D;37392;50.964;6.952;2022-11-24T02:53:55;7.17;118.28
51305;HTU21D;37392;50.964;6.952;2022-11-24T02:56:20;7.05;118.73
51305;HTU21D;37392;50.964;6.952;2022-11-24T02:58:46;6.91;-5.72
51305;HTU21D;37392;50.964;6.952;2022-11-24T03:01:11;6.85;-5.21
51305;HTU21D;37392;50.964;6.952;2022-11-24T03:03:37;6.73;-4.86
51305;HTU21D;37392;50.964;6.952;2022-11-24T03:06:03;6.63;-4.60
51305;HTU21D;37392;50.964;6.952;2022-11-24T03:08:28;6.66;-4.09
51305;HTU21D;37392;50.964;6.952;2022-11-24T03:10:54;6.58;-3.80
51305;HTU21D;37392;50.964;6.952;2022-11-24T03:13:19;6.66;-3.51
51305;HTU21D;37392;50.964;6.952;2022-11-24T03:15:45;6.67;-3.37
51305;HTU21D;37392;50.964;6.952;2022-11-24T03:18:10;6.69;-3.51
51305;HTU21D;37392;50.964;6.952;2022-11-24T03:20:36;6.72;-3.59
51305;HTU21D;37392;50.964;6.952;2022-11-24T03:23:01;6.72;-3.63
51305;HTU21D;37392;50.964;6.952;2022-11-24T03:25:27;6.80;-3.97
51305;HTU21D;37392;50.964;6.952;2022-11-24T03:27:54;6.82;-4.28
51305;HTU21D;37392;50.964;6.952;2022-11-24T03:30:20;6.88;-4.56
51305;HTU21D;37392;50.964;6.952;2022-11-24T03:32:45;6.98;-4.87
51305;HTU21D;37392;50.964;6.952;2022-11-24T03:35:11;7.01;-5.23
51305;HTU21D;37392;50.964;6.952;2022-11-24T03:37:36;7.12;-5.67
51305;HTU21D;37392;50.964;6.952;2022-11-24T03:40:02;7.13;-5.54
51305;HTU21D;37392;50.964;6.952;2022-11-24T03:42:28;7.14;-5.64
51305;HTU21D;37392;50.964;6.952;2022-11-24T03:44:53;7.23;118.95
51305;HTU21D;37392;50.964;6.952;2022-11-24T03:47:19;7.25;118.19
51305;HTU21D;37392;50.964;6.952;2022-11-24T03:49:44;7.23;118.36
51305;HTU21D;37392;50.964;6.952;2022-11-24T03:52:10;7.18;118.73
51305;HTU21D;37392;50.964;6.952;2022-11-24T03:54:35;7.18;118.71
51305;HTU21D;37392;50.964;6.952;2022-11-24T03:57:01;7.19;118.92
51305;HTU21D;37392;50.964;6.952;2022-11-24T03:59:26;7.23;118.97
51305;HTU21D;37392;50.964;6.952;2022-11-24T04:01:52;7.22;118.90
51305;HTU21D;37392;50.964;6.952;2022-11-24T04:04:17;7.29;118.24
51305;HTU21D;37392;50.964;6.952;2022-11-24T04:06:43;7.31;117.91
51305;HTU21D;37392;50.964;6.952;2022-11-24T04:09:09;7.30;118.28
51305;HTU21D;37392;50.964;6.952;2022-11-24T04:11:34;7.30;118.59
51305;HTU21D;37392;50.964;6.952;2022-11-24T04:14:19;7.31;-5.95
51305;HTU21D;37392;50.964;6.952;2022-11-24T04:16:45;7.32;-5.89
51305;HTU21D;37392;50.964;6.952;2022-11-24T04:19:10;7.33;-5.84
51305;HTU21D;37392;50.964;6.952;2022-11-24T04:21:36;7.31;-5.74
51305;HTU21D;37392;50.964;6.952;2022-11-24T04:24:01;7.28;-5.50
51305;HTU21D;37392;50.964;6.952;2022-11-24T04:26:26;7.25;-5.15
51305;HTU21D;37392;50.964;6.952;2022-11-24T04:28:52;7.31;-4.77
51305;HTU21D;37392;50.964;6.952;2022-11-24T04:31:17;7.41;-4.95
51305;HTU21D;37392;50.964;6.952;2022-11-24T04:33:43;7.49;-5.31
51305;HTU21D;37392;50.964;6.952;2022-11-24T04:36:08;7.58;-5.87
51305;HTU21D;37392;50.964;6.952;2022-11-24T04:38:34;7.67;118.95
51305;HTU21D;37392;50.964;6.952;2022-11-24T04:41:00;7.72;117.69
51305;HTU21D;37392;50.964;6.952;2022-11-24T04:43:27;7.77;117.66
51305;HTU21D;37392;50.964;6.952;2022-11-24T04:45:53;7.85;117.40
51305;HTU21D;37392;50.964;6.952;2022-11-24T04:48:19;7.86;116.97
51305;HTU21D;37392;50.964;6.952;2022-11-24T04:50:44;7.93;116.56
51305;HTU21D;37392;50.964;6.952;2022-11-24T04:53:10;7.99;115.70
51305;HTU21D;37392;50.964;6.952;2022-11-24T04:55:39;8.03;116.10
51305;HTU21D;37392;50.964;6.952;2022-11-24T04:58:08;8.09;115.40
51305;HTU21D;37392;50.964;6.952;2022-11-24T05:00:34;8.09;115.29
51305;HTU21D;37392;50.964;6.952;2022-11-24T05:03:00;8.14;115.41
51305;HTU21D;37392;50.964;6.952;2022-11-24T05:05:25;8.11;114.93
51305;HTU21D;37392;50.964;6.952;2022-11-24T05:07:51;8.12;114.81
51305;HTU21D;37392;50.964;6.952;2022-11-24T05:10:17;8.15;115.36
51305;HTU21D;37392;50.964;6.952;2022-11-24T05:13:05;8.18;114.70
51305;HTU21D;37392;50.964;6.952;2022-11-24T05:15:33;8.24;114.30
51305;HTU21D;37392;50.964;6.952;2022-11-24T05:18:00;8.27;115.01
51305;HTU21D;37392;50.964;6.952;2022-11-24T05:20:29;8.30;114.67
51305;HTU21D;37392;50.964;6.952;2022-11-24T05:22:54;8.30;114.25
51305;HTU21D;37392;50.964;6.952;2022-11-24T05:25:20;8.31;114.48
51305;HTU21D;37392;50.964;6.952;2022-11-24T05:27:45;8.33;114.07
51305;HTU21D;37392;50.964;6.952;2022-11-24T05:30:11;8.30;114.54
51305;HTU21D;37392;50.964;6.952;2022-11-24T05:32:37;8.35;113.88
51305;HTU21D;37392;50.964;6.952;2022-11-24T05:35:02;8.34;113.38
51305;HTU21D;37392;50.964;6.952;2022-11-24T05:37:28;8.34;114.08
51305;HTU21D;37392;50.964;6.952;2022-11-24T05:39:54;8.27;114.35
51305;HTU21D;37392;50.964;6.952;2022-11-24T05:42:20;8.29;114.70
51305;HTU21D;37392;50.964;6.952;2022-11-24T05:45:04;8.33;115.08
51305;HTU21D;37392;50.964;6.952;2022-11-24T05:47:30;8.33;115.07
51305;HTU21D;37392;50.964;6.952;2022-11-24T05:49:56;8.30;115.67
51305;HTU21D;37392;50.964;6.952;2022-11-24T05:52:21;8.34;114.95
51305;HTU21D;37392;50.964;6.952;2022-11-24T05:54:47;8.31;114.99
51305;HTU21D;37392;50.964;6.952;2022-11-24T05:57:12;8.30;115.06
51305;HTU21D;37392;50.964;6.952;2022-11-24T05:59:38;8.24;115.80
51305;HTU21D;37392;50.964;6.952;2022-11-24T06:02:04;8.22;116.62
51305;HTU21D;37392;50.964;6.952;2022-11-24T06:04:30;8.18;116.89
51305;HTU21D;37392;50.964;6.952;2022-11-24T06:06:56;8.18;117.03
51305;HTU21D;37392;50.964;6.952;2022-11-24T06:09:21;8.17;117.74
51305;HTU21D;37392;50.964;6.952;2022-11-24T06:11:47;8.17;118.11
51305;HTU21D;37392;50.964;6.952;2022-11-24T06:14:12;8.12;118.13
51305;HTU21D;37392;50.964;6.952;2022-11-24T06:16:38;8.05;117.92
51305;HTU21D;37392;50.964;6.952;2022-11-24T06:19:04;7.99;117.93
51305;HTU21D;37392;50.964;6.952;2022-11-24T06:21:29;7.93;117.65
51305;HTU21D;37392;50.964;6.952;2022-11-24T06:23:55;7.92;118.17
51305;HTU21D;37392;50.964;6.952;2022-11-24T06:26:21;7.91;118.15
51305;HTU21D;37392;50.964;6.952;2022-11-24T06:28:47;7.92;118.11
51305;HTU21D;37392;50.964;6.952;2022-11-24T06:31:12;7.86;118.73
51305;HTU21D;37392;50.964;6.952;2022-11-24T06:33:38;7.86;-5.93
51305;HTU21D;37392;50.964;6.952;2022-11-24T06:36:05;7.87;-5.40
51305;HTU21D;37392;50.964;6.952;2022-11-24T06:38:33;7.85;-5.58
51305;HTU21D;37392;50.964;6.952;2022-11-24T06:43:25;7.77;-5.04
51305;HTU21D;37392;50.964;6.952;2022-11-24T06:45:51;7.75;-5.05
51305;HTU21D;37392;50.964;6.952;2022-11-24T06:48:17;7.71;-4.84
51305;HTU21D;37392;50.964;6.952;2022-11-24T06:50:42;7.71;-4.68
51305;HTU21D;37392;50.964;6.952;2022-11-24T06:53:08;7.67;-4.75
51305;HTU21D;37392;50.964;6.952;2022-11-24T06:55:33;7.64;-4.63
51305;HTU21D;37392;50.964;6.952;2022-11-24T06:57:59;7.62;-4.38
51305;HTU21D;37392;50.964;6.952;2022-11-24T07:00:24;7.62;-4.50
51305;HTU21D;37392;50.964;6.952;2022-11-24T07:02:50;7.68;-4.81
51305;HTU21D;37392;50.964;6.952;2022-11-24T07:05:15;7.65;-5.04
51305;HTU21D;37392;50.964;6.952;2022-11-24T07:07:40;7.70;-5.21
51305;HTU21D;37392;50.964;6.952;2022-11-24T07:10:06;7.63;-5.15
51305;HTU21D;37392;50.964;6.952;2022-11-24T07:12:32;7.59;-5.53
51305;HTU21D;37392;50.964;6.952;2022-11-24T07:14:59;7.49;-5.57
51305;HTU21D;37392;50.964;6.952;2022-11-24T07:17:24;7.39;-5.24
51305;HTU21D;37392;50.964;6.952;2022-11-24T07:19:50;7.25;-5.10
51305;HTU21D;37392;50.964;6.952;2022-11-24T07:22:15;7.13;-5.05
51305;HTU21D;37392;50.964;6.952;2022-11-24T07:24:41;7.07;-4.81
51305;HTU21D;37392;50.964;6.952;2022-11-24T07:27:06;6.97;-4.42
51305;HTU21D;37392;50.964;6.952;2022-11-24T07:29:32;6.88;-4.09
51305;HTU21D;37392;50.964;6.952;2022-11-24T07:31:57;6.82;-3.99
51305;HTU21D;37392;50.964;6.952;2022-11-24T07:34:23;6.80;-3.62
51305;HTU21D;37392;50.964;6.952;2022-11-24T07:36:48;6.82;-3.11
51305;HTU21D;37392;50.964;6.952;2022-11-24T07:39:14;6.90;-2.80
51305;HTU21D;37392;50.964;6.952;2022-11-24T07:41:39;7.07;-2.65
51305;HTU21D;37392;50.964;6.952;2022-11-24T07:44:05;7.20;-2.79
51305;HTU21D;37392;50.964;6.952;2022-11-24T07:46:31;7.38;-3.27
51305;HTU21D;37392;50.964;6.952;2022-11-24T07:48:56;7.46;-3.88
51305;HTU21D;37392;50.964;6.952;2022-11-24T07:51:22;7.53;-3.74
51305;HTU21D;37392;50.964;6.952;2022-11-24T07:53:48;7.59;-3.84
51305;HTU21D;37392;50.964;6.952;2022-11-24T07:56:13;7.65;-4.87
51305;HTU21D;37392;50.964;6.952;2022-11-24T07:58:39;7.70;-4.67
51305;HTU21D;37392;50.964;6.952;2022-11-24T08:01:08;7.75;-5.36
51305;HTU21D;37392;50.964;6.952;2022-11-24T08:03:35;7.82;-5.88
51305;HTU21D;37392;50.964;6.952;2022-11-24T08:06:01;7.97;118.86
51305;HTU21D;37392;50.964;6.952;2022-11-24T08:08:26;8.02;118.37
51305;HTU21D;37392;50.964;6.952;2022-11-24T08:10:52;8.11;117.92
51305;HTU21D;37392;50.964;6.952;2022-11-24T08:13:17;8.16;117.34
51305;HTU21D;37392;50.964;6.952;2022-11-24T08:15:43;8.24;116.29
51305;HTU21D;37392;50.964;6.952;2022-11-24T08:18:09;8.32;116.10
51305;HTU21D;37392;50.964;6.952;2022-11-24T08:20:35;8.39;115.82
51305;HTU21D;37392;50.964;6.952;2022-11-24T08:23:01;8.45;115.67
51305;HTU21D;37392;50.964;6.952;2022-11-24T08:25:27;8.52;115.30
51305;HTU21D;37392;50.964;6.952;2022-11-24T08:27:59;8.60;114.86
51305;HTU21D;37392;50.964;6.952;2022-11-24T08:30:25;8.66;115.45
51305;HTU21D;37392;50.964;6.952;2022-11-24T08:32:51;8.77;115.80
51305;HTU21D;37392;50.964;6.952;2022-11-24T08:35:16;8.83;115.74
51305;HTU21D;37392;50.964;6.952;2022-11-24T08:37:42;8.92;115.14
51305;HTU21D;37392;50.964;6.952;2022-11-24T08:40:07;8.98;114.86
51305;HTU21D;37392;50.964;6.952;2022-11-24T08:42:33;9.06;113.96
51305;HTU21D;37392;50.964;6.952;2022-11-24T08:45:03;9.10;113.39
51305;HTU21D;37392;50.964;6.952;2022-11-24T08:47:29;9.18;112.49
51305;HTU21D;37392;50.964;6.952;2022-11-24T08:49:54;9.22;112.33
51305;HTU21D;37392;50.964;6.952;2022-11-24T08:52:20;9.37;113.16
51305;HTU21D;37392;50.964;6.952;2022-11-24T08:54:45;9.38;112.99
51305;HTU21D;37392;50.964;6.952;2022-11-24T08:57:12;9.44;112.29
51305;HTU21D;37392;50.964;6.952;2022-11-24T08:59:38;9.52;112.84
51305;HTU21D;37392;50.964;6.952;2022-11-24T09:02:04;9.63;112.93
51305;HTU21D;37392;50.964;6.952;2022-11-24T09:04:30;9.75;113.05
51305;HTU21D;37392;50.964;6.952;2022-11-24T09:06:56;9.86;111.95
51305;HTU21D;37392;50.964;6.952;2022-11-24T09:09:22;10.03;111.21
51305;HTU21D;37392;50.964;6.952;2022-11-24T09:11:47;10.04;109.98
51305;HTU21D;37392;50.964;6.952;2022-11-24T09:14:13;10.15;111.13
51305;HTU21D;37392;50.964;6.952;2022-11-24T09:16:38;10.29;109.98
51305;HTU21D;37392;50.964;6.952;2022-11-24T09:19:04;10.41;109.94
51305;HTU21D;37392;50.964;6.952;2022-11-24T09:21:31;10.75;111.20
51305;HTU21D;37392;50.964;6.952;2022-11-24T09:23:58;11.15;109.23
51305;HTU21D;37392;50.964;6.952;2022-11-24T09:26:25;11.33;107.96
51305;HTU21D;37392;50.964;6.952;2022-11-24T09:28:54;11.25;107.09
51305;HTU21D;37392;50.964;6.952;2022-11-24T09:31:22;11.05;105.65
51305;HTU21D;37392;50.964;6.952;2022-11-24T09:33:50;10.79;107.08
51305;HTU21D;37392;50.964;6.952;2022-11-24T09:36:16;10.66;108.60
51305;HTU21D;37392;50.964;6.952;2022-11-24T09:38:42;10.73;108.21
51305;HTU21D;37392;50.964;6.952;2022-11-24T09:44:04;10.96;106.89
51305;HTU21D;37392;50.964;6.952;2022-11-24T09:49:28;11.23;106.45
51305;HTU21D;37392;50.964;6.952;2022-11-24T09:51:57;11.45;104.16
51305;HTU21D;37392;50.964;6.952;2022-11-24T09:54:29;11.38;103.12
51305;HTU21D;37392;50.964;6.952;2022-11-24T09:56:58;11.37;104.39
51305;HTU21D;37392;50.964;6.952;2022-11-24T09:59:25;11.42;104.09
51305;HTU21D;37392;50.964;6.952;2022-11-24T10:01:51;11.51;104.33
51305;HTU21D;37392;50.964;6.952;2022-11-24T10:04:19;11.55;103.69
51305;HTU21D;37392;50.964;6.952;2022-11-24T10:10:24;12.06;103.64
51305;HTU21D;37392;50.964;6.952;2022-11-24T10:15:40;12.41;101.75
51305;HTU21D;37392;50.964;6.952;2022-11-24T10:24:26;13.49;96.93
51305;HTU21D;37392;50.964;6.952;2022-11-24T10:27:01;14.17;94.60
51305;HTU21D;37392;50.964;6.952;2022-11-24T10:29:32;14.63;92.22
51305;HTU21D;37392;50.964;6.952;2022-11-24T10:32:06;14.70;89.18
51305;HTU21D;37392;50.964;6.952;2022-11-24T10:34:50;14.47;90.19
51305;HTU21D;37392;50.964;6.952;2022-11-24T10:37:18;13.86;89.46
51305;HTU21D;37392;50.964;6.952;2022-11-24T10:40:11;13.26;92.71
51305;HTU21D;37392;50.964;6.952;2022-11-24T10:42:42;12.89;94.04
51305;HTU21D;37392;50.964;6.952;2022-11-24T10:45:14;12.64;95.65
51305;HTU21D;37392;50.964;6.952;2022-11-24T10:47:42;12.46;96.53
51305;HTU21D;37392;50.964;6.952;2022-11-24T10:50:12;12.22;94.99
51305;HTU21D;37392;50.964;6.952;2022-11-24T10:52:46;12.02;96.50
51305;HTU21D;37392;50.964;6.952;2022-11-24T10:55:14;11.81;96.80
51305;HTU21D;37392;50.964;6.952;2022-11-24T10:57:40;11.67;96.50
51305;HTU21D;37392;50.964;6.952;2022-11-24T11:02:45;11.51;96.58
51305;HTU21D;37392;50.964;6.952;2022-11-24T11:10:42;11.44;97.50
51305;HTU21D;37392;50.964;6.952;2022-11-24T11:15:45;11.41;97.42
51305;HTU21D;37392;50.964;6.952;2022-11-24T11:18:13;11.38;97.29
51305;HTU21D;37392;50.964;6.952;2022-11-24T11:20:40;11.36;96.20
51305;HTU21D;37392;50.964;6.952;2022-11-24T11:23:18;11.34;95.83
51305;HTU21D;37392;50.964;6.952;2022-11-24T11:25:49;11.33;95.87
51305;HTU21D;37392;50.964;6.952;2022-11-24T11:31:03;11.48;96.10
51305;HTU21D;37392;50.964;6.952;2022-11-24T11:33:30;11.59;94.93
51305;HTU21D;37392;50.964;6.952;2022-11-24T11:35:57;11.62;94.36
51305;HTU21D;37392;50.964;6.952;2022-11-24T11:38:25;11.68;95.51
51305;HTU21D;37392;50.964;6.952;2022-11-24T11:40:55;11.75;95.06
51305;HTU21D;37392;50.964;6.952;2022-11-24T11:43:23;11.77;94.14
51305;HTU21D;37392;50.964;6.952;2022-11-24T11:45:58;11.78;94.17
51305;HTU21D;37392;50.964;6.952;2022-11-24T11:48:30;11.83;92.57
51305;HTU21D;37392;50.964;6.952;2022-11-24T11:56:21;11.78;93.04
51305;HTU21D;37392;50.964;6.952;2022-11-24T12:05:04;11.57;92.86
51305;HTU21D;37392;50.964;6.952;2022-11-24T12:10:41;11.58;94.01
51305;HTU21D;37392;50.964;6.952;2022-11-24T12:15:49;11.51;93.21
51305;HTU21D;37392;50.964;6.952;2022-11-24T12:24:24;11.58;93.28
51305;HTU21D;37392;50.964;6.952;2022-11-24T12:33:06;11.84;92.56
51305;HTU21D;37392;50.964;6.952;2022-11-24T12:41:10;11.87;91.30
51305;HTU21D;37392;50.964;6.952;2022-11-24T12:43:43;11.78;91.39
51305;HTU21D;37392;50.964;6.952;2022-11-24T12:46:16;11.76;91.15
51305;HTU21D;37392;50.964;6.952;2022-11-24T12:51:34;11.64;91.91
51305;HTU21D;37392;50.964;6.952;2022-11-24T12:54:03;11.59;91.99
51305;HTU21D;37392;50.964;6.952;2022-11-24T12:56:39;11.55;91.25
51305;HTU21D;37392;50.964;6.952;2022-11-24T13:01:46;11.48;92.55
51305;HTU21D;37392;50.964;6.952;2022-11-24T13:04:33;11.45;92.91
51305;HTU21D;37392;50.964;6.952;2022-11-24T13:09:28;11.41;92.30
51305;HTU21D;37392;50.964;6.952;2022-11-24T13:12:09;11.44;91.15
51305;HTU21D;37392;50.964;6.952;2022-11-24T13:14:38;11.45;91.34
51305;HTU21D;37392;50.964;6.952;2022-11-24T13:19:47;11.33;91.31
51305;HTU21D;37392;50.964;6.952;2022-11-24T13:22:15;11.28;91.13
51305;HTU21D;37392;50.964;6.952;2022-11-24T13:24:42;11.27;91.29
51305;HTU21D;37392;50.964;6.952;2022-11-24T13:29:51;11.16;91.69
51305;HTU21D;37392;50.964;6.952;2022-11-24T13:37:19;11.03;92.58
51305;HTU21D;37392;50.964;6.952;2022-11-24T13:43:18;11.03;91.44
51305;HTU21D;37392;50.964;6.952;2022-11-24T13:46:00;11.02;91.77
51305;HTU21D;37392;50.964;6.952;2022-11-24T13:53:30;11.02;92.01
51305;HTU21D;37392;50.964;6.952;2022-11-24T13:56:21;11.00;92.26
51305;HTU21D;37392;50.964;6.952;2022-11-24T13:58:55;10.93;93.17
51305;HTU21D;37392;50.964;6.952;2022-11-24T14:01:32;10.89;92.91
51305;HTU21D;37392;50.964;6.952;2022-11-24T14:04:05;10.86;92.54
51305;HTU21D;37392;50.964;6.952;2022-11-24T14:06:52;10.85;92.16
51305;HTU21D;37392;50.964;6.952;2022-11-24T14:14:45;10.71;92.83
51305;HTU21D;37392;50.964;6.952;2022-11-24T14:19:37;10.56;93.32
51305;HTU21D;37392;50.964;6.952;2022-11-24T14:22:03;10.45;93.59
51305;HTU21D;37392;50.964;6.952;2022-11-24T14:24:32;10.50;92.88
51305;HTU21D;37392;50.964;6.952;2022-11-24T14:26:58;10.50;92.87
51305;HTU21D;37392;50.964;6.952;2022-11-24T14:29:23;10.49;92.68
51305;HTU21D;37392;50.964;6.952;2022-11-24T14:31:51;10.41;93.12
51305;HTU21D;37392;50.964;6.952;2022-11-24T14:34:18;10.35;93.47
51305;HTU21D;37392;50.964;6.952;2022-11-24T14:36:47;10.30;93.62
51305;HTU21D;37392;50.964;6.952;2022-11-24T14:39:14;10.16;93.63
51305;HTU21D;37392;50.964;6.952;2022-11-24T14:41:42;10.09;94.69
51305;HTU21D;37392;50.964;6.952;2022-11-24T14:46:49;9.98;95.83
51305;HTU21D;37392;50.964;6.952;2022-11-24T14:49:19;10.01;94.82
51305;HTU21D;37392;50.964;6.952;2022-11-24T14:51:47;9.95;94.65
51305;HTU21D;37392;50.964;6.952;2022-11-24T14:54:17;9.85;95.37
51305;HTU21D;37392;50.964;6.952;2022-11-24T14:59:25;10.00;94.22
51305;HTU21D;37392;50.964;6.952;2022-11-24T15:01:52;10.04;94.62
51305;HTU21D;37392;50.964;6.952;2022-11-24T15:04:20;10.03;94.04
51305;HTU21D;37392;50.964;6.952;2022-11-24T15:07:03;9.92;93.98
51305;HTU21D;37392;50.964;6.952;2022-11-24T15:15:00;9.65;95.17
51305;HTU21D;37392;50.964;6.952;2022-11-24T15:17:28;9.61;95.27
51305;HTU21D;37392;50.964;6.952;2022-11-24T15:19:56;9.50;95.61
51305;HTU21D;37392;50.964;6.952;2022-11-24T15:22:25;9.44;96.29
51305;HTU21D;37392;50.964;6.952;2022-11-24T15:25:01;9.48;96.17
51305;HTU21D;37392;50.964;6.952;2022-11-24T15:27:27;9.50;95.93
51305;HTU21D;37392;50.964;6.952;2022-11-24T15:29:53;9.49;96.13
51305;HTU21D;37392;50.964;6.952;2022-11-24T15:32:19;9.49;95.86
51305;HTU21D;37392;50.964;6.952;2022-11-24T15:34:44;9.38;96.25
51305;HTU21D;37392;50.964;6.952;2022-11-24T15:37:10;9.32;96.65
51305;HTU21D;37392;50.964;6.952;2022-11-24T15:39:35;9.27;96.72
51305;HTU21D;37392;50.964;6.952;2022-11-24T15:42:01;9.34;96.67
51305;HTU21D;37392;50.964;6.952;2022-11-24T15:44:26;9.44;96.05
51305;HTU21D;37392;50.964;6.952;2022-11-24T15:46:52;9.49;95.50
51305;HTU21D;37392;50.964;6.952;2022-11-24T15:49:19;9.40;95.92
51305;HTU21D;37392;50.964;6.952;2022-11-24T15:51:45;9.31;96.40
51305;HTU21D;37392;50.964;6.952;2022-11-24T15:54:12;9.18;96.84
51305;HTU21D;37392;50.964;6.952;2022-11-24T15:56:39;9.20;97.18
51305;HTU21D;37392;50.964;6.952;2022-11-24T15:59:14;9.15;97.39
51305;HTU21D;37392;50.964;6.952;2022-11-24T16:01:40;9.08;97.47
51305;HTU21D;37392;50.964;6.952;2022-11-24T16:04:07;8.96;97.70
51305;HTU21D;37392;50.964;6.952;2022-11-24T16:06:33;8.96;98.23
51305;HTU21D;37392;50.964;6.952;2022-11-24T16:08:58;8.89;98.48
51305;HTU21D;37392;50.964;6.952;2022-11-24T16:11:24;8.82;98.73
51305;HTU21D;37392;50.964;6.952;2022-11-24T16:13:50;8.82;98.39
51305;HTU21D;37392;50.964;6.952;2022-11-24T16:16:15;8.85;98.23
51305;HTU21D;37392;50.964;6.952;2022-11-24T16:18:41;8.78;98.32
51305;HTU21D;37392;50.964;6.952;2022-11-24T16:21:09;8.76;98.48
51305;HTU21D;37392;50.964;6.952;2022-11-24T16:23:34;8.68;98.61
51305;HTU21D;37392;50.964;6.952;2022-11-24T16:26:01;8.61;98.65
51305;HTU21D;37392;50.964;6.952;2022-11-24T16:28:28;8.61;98.69
51305;HTU21D;37392;50.964;6.952;2022-11-24T16:30:54;8.51;99.08
51305;HTU21D;37392;50.964;6.952;2022-11-24T16:33:19;8.48;99.18
51305;HTU21D;37392;50.964;6.952;2022-11-24T16:35:45;8.45;99.17
51305;HTU21D;37392;50.964;6.952;2022-11-24T16:38:15;8.35;99.91
51305;HTU21D;37392;50.964;6.952;2022-11-24T16:40:41;8.26;100.22
51305;HTU21D;37392;50.964;6.952;2022-11-24T16:43:10;8.23;100.29
51305;HTU21D;37392;50.964;6.952;2022-11-24T16:45:35;8.14;100.80
51305;HTU21D;37392;50.964;6.952;2022-11-24T16:48:01;8.22;100.51
51305;HTU21D;37392;50.964;6.952;2022-11-24T16:50:27;8.31;99.71
51305;HTU21D;37392;50.964;6.952;2022-11-24T16:52:52;8.30;99.82
51305;HTU21D;37392;50.964;6.952;2022-11-24T16:55:18;8.26;99.81
51305;HTU21D;37392;50.964;6.952;2022-11-24T16:57:43;8.23;100.19
51305;HTU21D;37392;50.964;6.952;2022-11-24T17:00:09;8.09;100.69
51305;HTU21D;37392;50.964;6.952;2022-11-24T17:02:36;8.08;100.91
51305;HTU21D;37392;50.964;6.952;2022-11-24T17:05:01;8.22;100.30
51305;HTU21D;37392;50.964;6.952;2022-11-24T17:07:27;8.24;99.98
51305;HTU21D;37392;50.964;6.952;2022-11-24T17:09:52;8.27;99.74
51305;HTU21D;37392;50.964;6.952;2022-11-24T17:12:18;8.26;99.90
51305;HTU21D;37392;50.964;6.952;2022-11-24T17:14:43;8.23;99.74
51305;HTU21D;37392;50.964;6.952;2022-11-24T17:17:09;8.21;99.84
51305;HTU21D;37392;50.964;6.952;2022-11-24T17:19:34;8.29;99.09
51305;HTU21D;37392;50.964;6.952;2022-11-24T17:22:00;8.30;98.82